sensor_id;sensor_type;location;lat;lon;timestamp;P1;durP1;ratioP1;P2;durP2;ratioP2
9294;SDS011;4686;44.496;11.324;2022-11-09T00:00:36;43.03;;;29.97;;
9294;SDS011;4686;44.496;11.324;2022-11-09T00:03:04;32.63;;;29.13;;
9294;SDS011;4686;44.496;11.324;2022-11-09T00:05:32;29.47;;;26.23;;
9294;SDS011;4686;44.496;11.324;2022-11-09T00:07:59;34.20;;;28.27;;
9294;SDS011;4686;44.496;11.324;2022-11-09T00:10:27;31.77;;;27.20;;
9294;SDS011;4686;44.496;11.324;2022-11-09T00:12:54;34.40;;;27.37;;
9294;SDS011;4686;44.496;11.324;2022-11-09T00:15:22;31.63;;;26.87;;
9294;SDS011;4686;44.496;11.324;2022-11-09T00:17:49;30.27;;;27.03;;
9294;SDS011;4686;44.496;11.324;2022-11-09T00:20:17;35.90;;;28.27;;
9294;SDS011;4686;44.496;11.324;2022-11-09T00:22:45;34.20;;;28.27;;
9294;SDS011;4686;44.496;11.324;2022-11-09T00:25:13;32.93;;;26.97;;
9294;SDS011;4686;44.496;11.324;2022-11-09T00:27:41;37.40;;;27.50;;
9294;SDS011;4686;44.496;11.324;2022-11-09T00:30:08;31.97;;;27.43;;
9294;SDS011;4686;44.496;11.324;2022-11-09T00:32:36;28.70;;;25.60;;
9294;SDS011;4686;44.496;11.324;2022-11-09T00:35:03;29.50;;;25.93;;
9294;SDS011;4686;44.496;11.324;2022-11-09T00:37:34;28.53;;;25.13;;
9294;SDS011;4686;44.496;11.324;2022-11-09T00:40:02;29.30;;;24.73;;
9294;SDS011;4686;44.496;11.324;2022-11-09T00:42:29;30.63;;;26.97;;
9294;SDS011;4686;44.496;11.324;2022-11-09T00:44:57;30.93;;;27.07;;
9294;SDS011;4686;44.496;11.324;2022-11-09T00:47:24;30.83;;;27.37;;
9294;SDS011;4686;44.496;11.324;2022-11-09T00:49:51;31.10;;;25.17;;
9294;SDS011;4686;44.496;11.324;2022-11-09T00:52:19;28.57;;;25.40;;
9294;SDS011;4686;44.496;11.324;2022-11-09T00:54:48;30.40;;;25.33;;
9294;SDS011;4686;44.496;11.324;2022-11-09T00:57:15;27.60;;;24.57;;
9294;SDS011;4686;44.496;11.324;2022-11-09T00:59:43;29.77;;;26.53;;
9294;SDS011;4686;44.496;11.324;2022-11-09T01:02:10;27.27;;;24.33;;
9294;SDS011;4686;44.496;11.324;2022-11-09T01:04:37;36.70;;;25.53;;
9294;SDS011;4686;44.496;11.324;2022-11-09T01:07:05;28.13;;;25.17;;
9294;SDS011;4686;44.496;11.324;2022-11-09T01:09:32;29.40;;;24.73;;
9294;SDS011;4686;44.496;11.324;2022-11-09T01:12:02;30.97;;;27.57;;
9294;SDS011;4686;44.496;11.324;2022-11-09T01:14:29;31.00;;;26.60;;
9294;SDS011;4686;44.496;11.324;2022-11-09T01:16:56;29.10;;;25.97;;
9294;SDS011;4686;44.496;11.324;2022-11-09T01:19:24;35.13;;;29.93;;
9294;SDS011;4686;44.496;11.324;2022-11-09T01:21:51;35.03;;;28.87;;
9294;SDS011;4686;44.496;11.324;2022-11-09T01:24:18;35.37;;;29.87;;
9294;SDS011;4686;44.496;11.324;2022-11-09T01:26:45;31.50;;;27.60;;
9294;SDS011;4686;44.496;11.324;2022-11-09T01:29:14;31.37;;;27.97;;
9294;SDS011;4686;44.496;11.324;2022-11-09T01:31:42;30.77;;;26.77;;
9294;SDS011;4686;44.496;11.324;2022-11-09T01:34:10;34.90;;;28.93;;
9294;SDS011;4686;44.496;11.324;2022-11-09T01:36:37;30.80;;;27.43;;
9294;SDS011;4686;44.496;11.324;2022-11-09T01:39:04;31.60;;;28.07;;
9294;SDS011;4686;44.496;11.324;2022-11-09T01:41:32;34.47;;;27.90;;
9294;SDS011;4686;44.496;11.324;2022-11-09T01:44:06;33.90;;;30.00;;
9294;SDS011;4686;44.496;11.324;2022-11-09T01:46:36;31.97;;;28.30;;
9294;SDS011;4686;44.496;11.324;2022-11-09T01:49:07;30.77;;;27.03;;
9294;SDS011;4686;44.496;11.324;2022-11-09T01:51:36;32.67;;;27.80;;
9294;SDS011;4686;44.496;11.324;2022-11-09T01:54:05;32.83;;;28.83;;
9294;SDS011;4686;44.496;11.324;2022-11-09T01:56:34;40.83;;;31.00;;
9294;SDS011;4686;44.496;11.324;2022-11-09T01:59:03;38.77;;;32.50;;
9294;SDS011;4686;44.496;11.324;2022-11-09T02:01:31;35.73;;;30.77;;
9294;SDS011;4686;44.496;11.324;2022-11-09T02:04:01;36.50;;;32.53;;
9294;SDS011;4686;44.496;11.324;2022-11-09T02:06:30;37.73;;;31.57;;
9294;SDS011;4686;44.496;11.324;2022-11-09T02:09:00;36.47;;;31.17;;
9294;SDS011;4686;44.496;11.324;2022-11-09T02:11:29;38.87;;;32.47;;
9294;SDS011;4686;44.496;11.324;2022-11-09T02:13:57;36.13;;;31.70;;
9294;SDS011;4686;44.496;11.324;2022-11-09T02:16:24;38.73;;;33.37;;
9294;SDS011;4686;44.496;11.324;2022-11-09T02:18:53;43.93;;;34.43;;
9294;SDS011;4686;44.496;11.324;2022-11-09T02:21:22;41.87;;;35.47;;
9294;SDS011;4686;44.496;11.324;2022-11-09T02:23:50;42.00;;;34.43;;
9294;SDS011;4686;44.496;11.324;2022-11-09T02:26:19;42.17;;;35.57;;
9294;SDS011;4686;44.496;11.324;2022-11-09T02:28:48;47.07;;;41.30;;
9294;SDS011;4686;44.496;11.324;2022-11-09T02:31:15;47.50;;;38.47;;
9294;SDS011;4686;44.496;11.324;2022-11-09T02:33:48;49.73;;;39.70;;
9294;SDS011;4686;44.496;11.324;2022-11-09T02:36:19;50.30;;;42.50;;
9294;SDS011;4686;44.496;11.324;2022-11-09T02:38:47;46.80;;;40.03;;
9294;SDS011;4686;44.496;11.324;2022-11-09T02:41:14;48.97;;;38.87;;
9294;SDS011;4686;44.496;11.324;2022-11-09T02:43:42;46.20;;;38.83;;
9294;SDS011;4686;44.496;11.324;2022-11-09T02:46:09;44.47;;;36.87;;
9294;SDS011;4686;44.496;11.324;2022-11-09T02:48:36;51.10;;;38.80;;
9294;SDS011;4686;44.496;11.324;2022-11-09T02:51:04;51.33;;;39.63;;
9294;SDS011;4686;44.496;11.324;2022-11-09T02:53:31;57.10;;;42.63;;
9294;SDS011;4686;44.496;11.324;2022-11-09T02:56:00;51.90;;;43.37;;
9294;SDS011;4686;44.496;11.324;2022-11-09T02:58:27;51.90;;;40.93;;
9294;SDS011;4686;44.496;11.324;2022-11-09T03:00:54;45.67;;;39.87;;
9294;SDS011;4686;44.496;11.324;2022-11-09T03:03:21;50.80;;;42.73;;
9294;SDS011;4686;44.496;11.324;2022-11-09T03:05:49;60.27;;;46.47;;
9294;SDS011;4686;44.496;11.324;2022-11-09T03:08:16;52.23;;;42.60;;
9294;SDS011;4686;44.496;11.324;2022-11-09T03:10:44;60.37;;;46.00;;
9294;SDS011;4686;44.496;11.324;2022-11-09T03:13:12;58.97;;;45.37;;
9294;SDS011;4686;44.496;11.324;2022-11-09T03:15:40;55.00;;;44.63;;
9294;SDS011;4686;44.496;11.324;2022-11-09T03:18:07;61.67;;;46.47;;
9294;SDS011;4686;44.496;11.324;2022-11-09T03:20:34;60.67;;;46.03;;
9294;SDS011;4686;44.496;11.324;2022-11-09T03:23:01;57.07;;;43.37;;
9294;SDS011;4686;44.496;11.324;2022-11-09T03:25:29;50.90;;;41.70;;
9294;SDS011;4686;44.496;11.324;2022-11-09T03:27:56;53.53;;;42.57;;
9294;SDS011;4686;44.496;11.324;2022-11-09T03:30:25;51.80;;;42.60;;
9294;SDS011;4686;44.496;11.324;2022-11-09T03:32:56;56.10;;;43.30;;
9294;SDS011;4686;44.496;11.324;2022-11-09T03:35:24;54.27;;;43.87;;
9294;SDS011;4686;44.496;11.324;2022-11-09T03:37:51;53.47;;;43.87;;
9294;SDS011;4686;44.496;11.324;2022-11-09T03:40:19;54.90;;;44.70;;
9294;SDS011;4686;44.496;11.324;2022-11-09T03:42:47;61.63;;;47.00;;
9294;SDS011;4686;44.496;11.324;2022-11-09T03:45:15;60.70;;;45.50;;
9294;SDS011;4686;44.496;11.324;2022-11-09T03:47:44;57.63;;;43.00;;
9294;SDS011;4686;44.496;11.324;2022-11-09T03:50:12;56.77;;;45.10;;
9294;SDS011;4686;44.496;11.324;2022-11-09T03:52:42;56.67;;;44.70;;
9294;SDS011;4686;44.496;11.324;2022-11-09T03:55:09;63.70;;;46.57;;
9294;SDS011;4686;44.496;11.324;2022-11-09T03:57:37;66.00;;;49.17;;
9294;SDS011;4686;44.496;11.324;2022-11-09T04:00:05;63.07;;;49.40;;
9294;SDS011;4686;44.496;11.324;2022-11-09T04:02:33;65.40;;;49.07;;
9294;SDS011;4686;44.496;11.324;2022-11-09T04:05:04;66.57;;;50.33;;
9294;SDS011;4686;44.496;11.324;2022-11-09T04:07:32;67.83;;;51.00;;
9294;SDS011;4686;44.496;11.324;2022-11-09T04:09:59;65.00;;;50.13;;
9294;SDS011;4686;44.496;11.324;2022-11-09T04:12:27;61.80;;;49.47;;
9294;SDS011;4686;44.496;11.324;2022-11-09T04:14:55;67.57;;;52.00;;
9294;SDS011;4686;44.496;11.324;2022-11-09T04:17:22;59.77;;;48.20;;
9294;SDS011;4686;44.496;11.324;2022-11-09T04:19:50;64.27;;;49.87;;
9294;SDS011;4686;44.496;11.324;2022-11-09T04:22:20;57.97;;;49.53;;
9294;SDS011;4686;44.496;11.324;2022-11-09T04:24:47;60.23;;;46.63;;
9294;SDS011;4686;44.496;11.324;2022-11-09T04:27:17;59.43;;;48.43;;
9294;SDS011;4686;44.496;11.324;2022-11-09T04:29:44;59.03;;;46.47;;
9294;SDS011;4686;44.496;11.324;2022-11-09T04:32:11;60.17;;;46.97;;
9294;SDS011;4686;44.496;11.324;2022-11-09T04:34:39;58.80;;;46.37;;
9294;SDS011;4686;44.496;11.324;2022-11-09T04:37:06;61.40;;;47.63;;
9294;SDS011;4686;44.496;11.324;2022-11-09T04:39:34;58.10;;;48.40;;
9294;SDS011;4686;44.496;11.324;2022-11-09T04:42:02;75.97;;;49.80;;
9294;SDS011;4686;44.496;11.324;2022-11-09T04:44:29;60.27;;;47.27;;
9294;SDS011;4686;44.496;11.324;2022-11-09T04:46:57;67.60;;;51.00;;
9294;SDS011;4686;44.496;11.324;2022-11-09T04:49:24;69.30;;;50.17;;
9294;SDS011;4686;44.496;11.324;2022-11-09T04:51:51;59.33;;;48.90;;
9294;SDS011;4686;44.496;11.324;2022-11-09T04:54:22;70.67;;;54.13;;
9294;SDS011;4686;44.496;11.324;2022-11-09T04:56:50;63.67;;;51.03;;
9294;SDS011;4686;44.496;11.324;2022-11-09T04:59:18;61.40;;;49.27;;
9294;SDS011;4686;44.496;11.324;2022-11-09T05:01:45;70.67;;;52.40;;
9294;SDS011;4686;44.496;11.324;2022-11-09T05:04:12;66.93;;;51.10;;
9294;SDS011;4686;44.496;11.324;2022-11-09T05:06:40;67.63;;;52.03;;
9294;SDS011;4686;44.496;11.324;2022-11-09T05:09:07;64.77;;;52.27;;
9294;SDS011;4686;44.496;11.324;2022-11-09T05:11:34;70.53;;;52.53;;
9294;SDS011;4686;44.496;11.324;2022-11-09T05:14:03;66.70;;;52.87;;
9294;SDS011;4686;44.496;11.324;2022-11-09T05:16:30;67.20;;;52.20;;
9294;SDS011;4686;44.496;11.324;2022-11-09T05:18:58;66.33;;;50.87;;
9294;SDS011;4686;44.496;11.324;2022-11-09T05:21:25;69.17;;;52.70;;
9294;SDS011;4686;44.496;11.324;2022-11-09T05:23:53;67.10;;;50.60;;
9294;SDS011;4686;44.496;11.324;2022-11-09T05:26:29;66.17;;;51.73;;
9294;SDS011;4686;44.496;11.324;2022-11-09T05:28:56;64.70;;;52.50;;
9294;SDS011;4686;44.496;11.324;2022-11-09T05:31:25;65.00;;;52.47;;
9294;SDS011;4686;44.496;11.324;2022-11-09T05:33:53;67.10;;;50.73;;
9294;SDS011;4686;44.496;11.324;2022-11-09T05:36:21;73.70;;;54.87;;
9294;SDS011;4686;44.496;11.324;2022-11-09T05:38:49;67.67;;;52.60;;
9294;SDS011;4686;44.496;11.324;2022-11-09T05:41:17;66.93;;;52.87;;
9294;SDS011;4686;44.496;11.324;2022-11-09T05:43:44;65.90;;;51.30;;
9294;SDS011;4686;44.496;11.324;2022-11-09T05:46:12;64.70;;;52.30;;
9294;SDS011;4686;44.496;11.324;2022-11-09T05:48:41;70.63;;;53.23;;
9294;SDS011;4686;44.496;11.324;2022-11-09T05:51:09;66.53;;;52.17;;
9294;SDS011;4686;44.496;11.324;2022-11-09T05:53:37;76.30;;;54.37;;
9294;SDS011;4686;44.496;11.324;2022-11-09T05:56:05;75.00;;;56.37;;
9294;SDS011;4686;44.496;11.324;2022-11-09T05:58:33;74.03;;;56.70;;
9294;SDS011;4686;44.496;11.324;2022-11-09T06:01:03;73.43;;;56.67;;
9294;SDS011;4686;44.496;11.324;2022-11-09T06:03:30;70.50;;;56.13;;
9294;SDS011;4686;44.496;11.324;2022-11-09T06:06:05;78.37;;;57.40;;
9294;SDS011;4686;44.496;11.324;2022-11-09T06:08:36;70.00;;;56.67;;
9294;SDS011;4686;44.496;11.324;2022-11-09T06:11:04;74.93;;;57.97;;
9294;SDS011;4686;44.496;11.324;2022-11-09T06:13:31;89.10;;;61.87;;
9294;SDS011;4686;44.496;11.324;2022-11-09T06:15:59;83.60;;;61.43;;
9294;SDS011;4686;44.496;11.324;2022-11-09T06:18:28;82.37;;;61.87;;
9294;SDS011;4686;44.496;11.324;2022-11-09T06:20:57;74.40;;;56.07;;
9294;SDS011;4686;44.496;11.324;2022-11-09T06:23:26;75.20;;;57.77;;
9294;SDS011;4686;44.496;11.324;2022-11-09T06:25:55;71.03;;;57.07;;
9294;SDS011;4686;44.496;11.324;2022-11-09T06:28:23;72.10;;;55.50;;
9294;SDS011;4686;44.496;11.324;2022-11-09T06:30:50;76.27;;;59.90;;
9294;SDS011;4686;44.496;11.324;2022-11-09T06:33:17;73.87;;;58.47;;
9294;SDS011;4686;44.496;11.324;2022-11-09T06:35:45;77.60;;;60.20;;
9294;SDS011;4686;44.496;11.324;2022-11-09T06:38:12;78.93;;;61.00;;
9294;SDS011;4686;44.496;11.324;2022-11-09T06:40:43;76.07;;;59.60;;
9294;SDS011;4686;44.496;11.324;2022-11-09T06:43:11;77.87;;;59.67;;
9294;SDS011;4686;44.496;11.324;2022-11-09T06:45:39;84.47;;;60.87;;
9294;SDS011;4686;44.496;11.324;2022-11-09T06:48:06;75.47;;;59.97;;
9294;SDS011;4686;44.496;11.324;2022-11-09T06:50:33;77.60;;;61.17;;
9294;SDS011;4686;44.496;11.324;2022-11-09T06:53:01;81.07;;;60.47;;
9294;SDS011;4686;44.496;11.324;2022-11-09T06:55:29;75.90;;;60.37;;
9294;SDS011;4686;44.496;11.324;2022-11-09T06:57:58;90.40;;;62.70;;
9294;SDS011;4686;44.496;11.324;2022-11-09T07:00:26;85.50;;;63.53;;
9294;SDS011;4686;44.496;11.324;2022-11-09T07:02:54;76.23;;;60.70;;
9294;SDS011;4686;44.496;11.324;2022-11-09T07:05:21;83.70;;;63.83;;
9294;SDS011;4686;44.496;11.324;2022-11-09T07:07:49;91.17;;;65.87;;
9294;SDS011;4686;44.496;11.324;2022-11-09T07:10:16;83.53;;;61.87;;
9294;SDS011;4686;44.496;11.324;2022-11-09T07:12:44;83.67;;;64.37;;
9294;SDS011;4686;44.496;11.324;2022-11-09T07:15:12;81.87;;;61.37;;
9294;SDS011;4686;44.496;11.324;2022-11-09T07:17:40;82.20;;;60.40;;
9294;SDS011;4686;44.496;11.324;2022-11-09T07:20:08;82.90;;;59.40;;
9294;SDS011;4686;44.496;11.324;2022-11-09T07:22:36;84.03;;;66.87;;
9294;SDS011;4686;44.496;11.324;2022-11-09T07:25:04;74.13;;;60.43;;
9294;SDS011;4686;44.496;11.324;2022-11-09T07:27:32;82.13;;;58.07;;
9294;SDS011;4686;44.496;11.324;2022-11-09T07:30:00;86.95;;;63.78;;
9294;SDS011;4686;44.496;11.324;2022-11-09T07:32:29;72.40;;;61.07;;
9294;SDS011;4686;44.496;11.324;2022-11-09T07:34:58;80.70;;;61.03;;
9294;SDS011;4686;44.496;11.324;2022-11-09T07:37:25;82.53;;;65.07;;
9294;SDS011;4686;44.496;11.324;2022-11-09T07:39:53;89.30;;;63.13;;
9294;SDS011;4686;44.496;11.324;2022-11-09T07:42:22;95.23;;;64.53;;
9294;SDS011;4686;44.496;11.324;2022-11-09T07:44:49;90.63;;;62.57;;
9294;SDS011;4686;44.496;11.324;2022-11-09T07:47:17;85.90;;;62.97;;
9294;SDS011;4686;44.496;11.324;2022-11-09T07:49:46;88.10;;;62.73;;
9294;SDS011;4686;44.496;11.324;2022-11-09T07:52:13;86.23;;;64.00;;
9294;SDS011;4686;44.496;11.324;2022-11-09T07:54:41;82.83;;;64.67;;
9294;SDS011;4686;44.496;11.324;2022-11-09T07:57:08;97.97;;;66.87;;
9294;SDS011;4686;44.496;11.324;2022-11-09T07:59:37;91.37;;;69.30;;
9294;SDS011;4686;44.496;11.324;2022-11-09T08:02:04;87.67;;;67.00;;
9294;SDS011;4686;44.496;11.324;2022-11-09T08:04:32;88.90;;;70.60;;
9294;SDS011;4686;44.496;11.324;2022-11-09T08:07:03;89.30;;;68.07;;
9294;SDS011;4686;44.496;11.324;2022-11-09T08:09:32;85.93;;;67.77;;
9294;SDS011;4686;44.496;11.324;2022-11-09T08:12:00;91.20;;;70.10;;
9294;SDS011;4686;44.496;11.324;2022-11-09T08:14:27;86.30;;;67.13;;
9294;SDS011;4686;44.496;11.324;2022-11-09T08:16:55;94.50;;;70.70;;
9294;SDS011;4686;44.496;11.324;2022-11-09T08:19:23;88.67;;;70.17;;
9294;SDS011;4686;44.496;11.324;2022-11-09T08:21:50;92.50;;;70.80;;
9294;SDS011;4686;44.496;11.324;2022-11-09T08:24:22;97.83;;;72.93;;
9294;SDS011;4686;44.496;11.324;2022-11-09T08:26:51;95.37;;;73.67;;
9294;SDS011;4686;44.496;11.324;2022-11-09T08:29:19;96.47;;;76.47;;
9294;SDS011;4686;44.496;11.324;2022-11-09T08:31:48;95.83;;;72.17;;
9294;SDS011;4686;44.496;11.324;2022-11-09T08:34:16;91.00;;;72.90;;
9294;SDS011;4686;44.496;11.324;2022-11-09T08:36:44;100.90;;;75.70;;
9294;SDS011;4686;44.496;11.324;2022-11-09T08:39:11;99.17;;;76.00;;
9294;SDS011;4686;44.496;11.324;2022-11-09T08:41:40;92.67;;;72.70;;
9294;SDS011;4686;44.496;11.324;2022-11-09T08:44:07;89.23;;;68.63;;
9294;SDS011;4686;44.496;11.324;2022-11-09T08:46:34;91.27;;;70.33;;
9294;SDS011;4686;44.496;11.324;2022-11-09T08:49:02;94.30;;;70.87;;
9294;SDS011;4686;44.496;11.324;2022-11-09T08:51:34;89.03;;;70.67;;
9294;SDS011;4686;44.496;11.324;2022-11-09T08:54:02;90.70;;;71.60;;
9294;SDS011;4686;44.496;11.324;2022-11-09T08:56:29;94.63;;;71.53;;
9294;SDS011;4686;44.496;11.324;2022-11-09T08:58:58;102.17;;;71.00;;
9294;SDS011;4686;44.496;11.324;2022-11-09T09:01:26;90.37;;;71.47;;
9294;SDS011;4686;44.496;11.324;2022-11-09T09:03:55;91.93;;;71.57;;
9294;SDS011;4686;44.496;11.324;2022-11-09T09:06:23;97.03;;;73.13;;
9294;SDS011;4686;44.496;11.324;2022-11-09T09:08:50;100.07;;;73.40;;
9294;SDS011;4686;44.496;11.324;2022-11-09T09:11:18;92.70;;;74.00;;
9294;SDS011;4686;44.496;11.324;2022-11-09T09:13:46;95.73;;;72.90;;
9294;SDS011;4686;44.496;11.324;2022-11-09T09:16:15;97.43;;;71.60;;
9294;SDS011;4686;44.496;11.324;2022-11-09T09:18:42;97.87;;;73.90;;
9294;SDS011;4686;44.496;11.324;2022-11-09T09:21:10;104.37;;;74.47;;
9294;SDS011;4686;44.496;11.324;2022-11-09T09:23:37;102.30;;;72.50;;
9294;SDS011;4686;44.496;11.324;2022-11-09T09:26:06;95.63;;;72.70;;
9294;SDS011;4686;44.496;11.324;2022-11-09T09:28:33;96.13;;;71.40;;
9294;SDS011;4686;44.496;11.324;2022-11-09T09:31:00;87.87;;;69.70;;
9294;SDS011;4686;44.496;11.324;2022-11-09T09:33:30;93.33;;;73.63;;
9294;SDS011;4686;44.496;11.324;2022-11-09T09:35:58;87.93;;;68.07;;
9294;SDS011;4686;44.496;11.324;2022-11-09T09:38:26;92.90;;;68.67;;
9294;SDS011;4686;44.496;11.324;2022-11-09T09:40:55;88.70;;;68.40;;
9294;SDS011;4686;44.496;11.324;2022-11-09T09:43:25;86.70;;;66.60;;
9294;SDS011;4686;44.496;11.324;2022-11-09T09:45:53;91.50;;;63.27;;
9294;SDS011;4686;44.496;11.324;2022-11-09T09:48:25;82.53;;;67.13;;
9294;SDS011;4686;44.496;11.324;2022-11-09T09:50:56;94.40;;;71.30;;
9294;SDS011;4686;44.496;11.324;2022-11-09T09:53:25;88.70;;;68.37;;
9294;SDS011;4686;44.496;11.324;2022-11-09T09:55:58;90.77;;;70.77;;
9294;SDS011;4686;44.496;11.324;2022-11-09T09:58:27;93.03;;;72.70;;
9294;SDS011;4686;44.496;11.324;2022-11-09T10:00:56;98.27;;;73.27;;
9294;SDS011;4686;44.496;11.324;2022-11-09T10:03:26;101.23;;;75.20;;
9294;SDS011;4686;44.496;11.324;2022-11-09T10:05:57;95.00;;;71.90;;
9294;SDS011;4686;44.496;11.324;2022-11-09T10:08:32;90.67;;;71.20;;
9294;SDS011;4686;44.496;11.324;2022-11-09T10:11:05;97.60;;;72.47;;
9294;SDS011;4686;44.496;11.324;2022-11-09T10:13:46;91.53;;;72.23;;
9294;SDS011;4686;44.496;11.324;2022-11-09T10:16:18;102.20;;;73.70;;
9294;SDS011;4686;44.496;11.324;2022-11-09T10:18:54;100.03;;;74.00;;
9294;SDS011;4686;44.496;11.324;2022-11-09T10:21:30;98.00;;;72.00;;
9294;SDS011;4686;44.496;11.324;2022-11-09T10:24:10;92.23;;;70.77;;
9294;SDS011;4686;44.496;11.324;2022-11-09T10:26:42;99.40;;;74.10;;
9294;SDS011;4686;44.496;11.324;2022-11-09T10:29:19;93.20;;;70.03;;
9294;SDS011;4686;44.496;11.324;2022-11-09T10:31:47;105.10;;;75.47;;
9294;SDS011;4686;44.496;11.324;2022-11-09T10:34:16;104.33;;;76.23;;
9294;SDS011;4686;44.496;11.324;2022-11-09T10:36:45;100.93;;;77.57;;
9294;SDS011;4686;44.496;11.324;2022-11-09T10:39:13;92.83;;;73.33;;
9294;SDS011;4686;44.496;11.324;2022-11-09T10:41:41;99.07;;;73.30;;
9294;SDS011;4686;44.496;11.324;2022-11-09T10:44:11;91.20;;;73.10;;
9294;SDS011;4686;44.496;11.324;2022-11-09T10:49:22;88.70;;;70.17;;
9294;SDS011;4686;44.496;11.324;2022-11-09T10:51:52;91.90;;;72.00;;
9294;SDS011;4686;44.496;11.324;2022-11-09T10:54:20;100.77;;;77.50;;
9294;SDS011;4686;44.496;11.324;2022-11-09T10:56:48;92.50;;;70.97;;
9294;SDS011;4686;44.496;11.324;2022-11-09T10:59:34;92.07;;;71.53;;
9294;SDS011;4686;44.496;11.324;2022-11-09T11:02:03;85.03;;;69.33;;
9294;SDS011;4686;44.496;11.324;2022-11-09T11:04:50;89.83;;;70.13;;
9294;SDS011;4686;44.496;11.324;2022-11-09T11:07:20;86.33;;;70.20;;
9294;SDS011;4686;44.496;11.324;2022-11-09T11:09:47;98.60;;;73.03;;
9294;SDS011;4686;44.496;11.324;2022-11-09T11:12:15;92.53;;;72.60;;
9294;SDS011;4686;44.496;11.324;2022-11-09T11:14:44;89.10;;;70.73;;
9294;SDS011;4686;44.496;11.324;2022-11-09T11:17:22;91.50;;;70.77;;
9294;SDS011;4686;44.496;11.324;2022-11-09T11:19:50;82.60;;;67.70;;
9294;SDS011;4686;44.496;11.324;2022-11-09T11:22:20;93.10;;;70.83;;
9294;SDS011;4686;44.496;11.324;2022-11-09T11:24:52;84.27;;;67.37;;
9294;SDS011;4686;44.496;11.324;2022-11-09T11:27:21;89.03;;;70.80;;
9294;SDS011;4686;44.496;11.324;2022-11-09T11:29:51;91.30;;;67.73;;
9294;SDS011;4686;44.496;11.324;2022-11-09T11:32:22;82.63;;;67.80;;
9294;SDS011;4686;44.496;11.324;2022-11-09T11:34:49;78.97;;;65.77;;
9294;SDS011;4686;44.496;11.324;2022-11-09T11:37:28;86.67;;;66.13;;
9294;SDS011;4686;44.496;11.324;2022-11-09T11:40:00;88.93;;;67.83;;
9294;SDS011;4686;44.496;11.324;2022-11-09T11:42:41;86.63;;;67.20;;
9294;SDS011;4686;44.496;11.324;2022-11-09T11:45:14;83.10;;;65.00;;
9294;SDS011;4686;44.496;11.324;2022-11-09T11:47:45;87.20;;;67.10;;
9294;SDS011;4686;44.496;11.324;2022-11-09T11:50:29;77.50;;;63.30;;
9294;SDS011;4686;44.496;11.324;2022-11-09T11:53:02;88.03;;;67.77;;
9294;SDS011;4686;44.496;11.324;2022-11-09T11:55:39;90.73;;;67.53;;
9294;SDS011;4686;44.496;11.324;2022-11-09T11:58:15;78.37;;;65.57;;
9294;SDS011;4686;44.496;11.324;2022-11-09T12:00:46;83.37;;;64.90;;
9294;SDS011;4686;44.496;11.324;2022-11-09T12:03:22;79.20;;;63.17;;
9294;SDS011;4686;44.496;11.324;2022-11-09T12:06:08;84.80;;;65.90;;
9294;SDS011;4686;44.496;11.324;2022-11-09T12:08:42;82.13;;;65.33;;
9294;SDS011;4686;44.496;11.324;2022-11-09T12:11:14;91.10;;;69.33;;
9294;SDS011;4686;44.496;11.324;2022-11-09T12:13:49;82.80;;;65.03;;
9294;SDS011;4686;44.496;11.324;2022-11-09T12:16:20;86.43;;;67.63;;
9294;SDS011;4686;44.496;11.324;2022-11-09T12:18:52;88.37;;;65.90;;
9294;SDS011;4686;44.496;11.324;2022-11-09T12:21:21;86.87;;;68.10;;
9294;SDS011;4686;44.496;11.324;2022-11-09T12:24:00;89.90;;;66.33;;
9294;SDS011;4686;44.496;11.324;2022-11-09T12:26:33;79.70;;;65.73;;
9294;SDS011;4686;44.496;11.324;2022-11-09T12:29:06;84.03;;;65.67;;
9294;SDS011;4686;44.496;11.324;2022-11-09T12:31:38;79.57;;;65.10;;
9294;SDS011;4686;44.496;11.324;2022-11-09T12:34:12;83.70;;;64.80;;
9294;SDS011;4686;44.496;11.324;2022-11-09T12:36:43;87.73;;;67.17;;
9294;SDS011;4686;44.496;11.324;2022-11-09T12:39:14;80.23;;;66.10;;
9294;SDS011;4686;44.496;11.324;2022-11-09T12:41:45;78.13;;;65.57;;
9294;SDS011;4686;44.496;11.324;2022-11-09T12:44:14;89.00;;;65.40;;
9294;SDS011;4686;44.496;11.324;2022-11-09T12:46:43;80.83;;;64.37;;
9294;SDS011;4686;44.496;11.324;2022-11-09T12:49:17;86.53;;;64.50;;
9294;SDS011;4686;44.496;11.324;2022-11-09T12:51:48;85.00;;;64.90;;
9294;SDS011;4686;44.496;11.324;2022-11-09T12:54:17;81.60;;;62.33;;
9294;SDS011;4686;44.496;11.324;2022-11-09T12:56:46;80.63;;;61.07;;
9294;SDS011;4686;44.496;11.324;2022-11-09T12:59:32;83.97;;;63.50;;
9294;SDS011;4686;44.496;11.324;2022-11-09T13:02:00;80.30;;;64.50;;
9294;SDS011;4686;44.496;11.324;2022-11-09T13:04:29;79.50;;;65.40;;
9294;SDS011;4686;44.496;11.324;2022-11-09T13:07:18;81.43;;;63.53;;
9294;SDS011;4686;44.496;11.324;2022-11-09T13:09:56;87.80;;;67.37;;
9294;SDS011;4686;44.496;11.324;2022-11-09T13:12:28;76.80;;;64.10;;
9294;SDS011;4686;44.496;11.324;2022-11-09T13:15:11;84.60;;;65.53;;
9294;SDS011;4686;44.496;11.324;2022-11-09T13:20:39;83.33;;;65.80;;
9294;SDS011;4686;44.496;11.324;2022-11-09T13:23:26;84.83;;;65.30;;
9294;SDS011;4686;44.496;11.324;2022-11-09T13:26:00;91.80;;;66.80;;
9294;SDS011;4686;44.496;11.324;2022-11-09T13:39:33;88.97;;;68.20;;
9294;SDS011;4686;44.496;11.324;2022-11-09T13:42:18;87.37;;;66.37;;
9294;SDS011;4686;44.496;11.324;2022-11-09T13:44:49;86.20;;;66.23;;
9294;SDS011;4686;44.496;11.324;2022-11-09T13:47:20;80.63;;;67.00;;
9294;SDS011;4686;44.496;11.324;2022-11-09T13:49:48;85.37;;;66.23;;
9294;SDS011;4686;44.496;11.324;2022-11-09T13:55:02;79.73;;;64.17;;
9294;SDS011;4686;44.496;11.324;2022-11-09T13:57:40;90.17;;;65.90;;
9294;SDS011;4686;44.496;11.324;2022-11-09T14:00:14;83.37;;;66.30;;
9294;SDS011;4686;44.496;11.324;2022-11-09T14:02:50;83.63;;;67.20;;
9294;SDS011;4686;44.496;11.324;2022-11-09T14:05:25;88.87;;;66.20;;
9294;SDS011;4686;44.496;11.324;2022-11-09T14:07:53;82.33;;;65.90;;
9294;SDS011;4686;44.496;11.324;2022-11-09T14:13:15;86.20;;;64.83;;
9294;SDS011;4686;44.496;11.324;2022-11-09T14:15:46;75.35;;;55.08;;
9294;SDS011;4686;44.496;11.324;2022-11-09T14:18:19;79.20;;;64.03;;
9294;SDS011;4686;44.496;11.324;2022-11-09T14:20:49;94.37;;;64.43;;
9294;SDS011;4686;44.496;11.324;2022-11-09T14:23:18;79.33;;;65.63;;
9294;SDS011;4686;44.496;11.324;2022-11-09T14:25:46;81.13;;;63.53;;
9294;SDS011;4686;44.496;11.324;2022-11-09T14:28:26;83.07;;;64.20;;
9294;SDS011;4686;44.496;11.324;2022-11-09T14:30:53;83.77;;;66.07;;
9294;SDS011;4686;44.496;11.324;2022-11-09T14:33:22;79.47;;;64.33;;
9294;SDS011;4686;44.496;11.324;2022-11-09T14:35:50;83.20;;;67.73;;
9294;SDS011;4686;44.496;11.324;2022-11-09T14:38:18;86.80;;;65.20;;
9294;SDS011;4686;44.496;11.324;2022-11-09T14:40:47;84.57;;;67.47;;
9294;SDS011;4686;44.496;11.324;2022-11-09T14:43:21;80.70;;;63.83;;
9294;SDS011;4686;44.496;11.324;2022-11-09T14:45:51;78.93;;;65.13;;
9294;SDS011;4686;44.496;11.324;2022-11-09T14:48:19;83.73;;;64.93;;
9294;SDS011;4686;44.496;11.324;2022-11-09T14:50:47;83.00;;;66.30;;
9294;SDS011;4686;44.496;11.324;2022-11-09T14:53:16;85.53;;;67.30;;
9294;SDS011;4686;44.496;11.324;2022-11-09T14:55:46;82.13;;;66.90;;
9294;SDS011;4686;44.496;11.324;2022-11-09T14:58:15;83.63;;;66.80;;
9294;SDS011;4686;44.496;11.324;2022-11-09T15:00:43;87.97;;;67.80;;
9294;SDS011;4686;44.496;11.324;2022-11-09T15:03:21;83.87;;;67.80;;
9294;SDS011;4686;44.496;11.324;2022-11-09T15:05:50;85.47;;;66.80;;
9294;SDS011;4686;44.496;11.324;2022-11-09T15:08:30;81.07;;;69.03;;